Time;durP1;ratioP1;P1;durP2;ratioP2;P2;SDS_P1;SDS_P2;PMS_P1;PMS_P2;Temp;Humidity;BMP_temperature;BMP_pressure;BME280_temperature;BME280_humidity;BME280_pressure;Samples;Min_cycle;Max_cycle;Signal;HPM_P1;HPM_P2
2021/10/31 00:00:13;;;;;;;;;;;;;;;;;;5071054;28;19917;-77
2021/10/31 00:02:38;;;;;;;;;;;;;;;;;;5054132;28;19913;-77
2021/10/31 00:05:04;;;;;;;;;;;;;;;;;;5054492;28;19912;-77
2021/10/31 00:07:29;;;;;;;;;;;;;;;;;;5054605;28;19968;-77
2021/10/31 00:09:55;;;;;;;;;;;;;;;;;;5080454;28;19947;-77
2021/10/31 00:12:20;;;;;;;;;;;;;;;;;;5054229;28;19974;-77
2021/10/31 00:14:45;;;;;;;;;;;;;;;;;;5055861;28;19924;-77
2021/10/31 00:17:10;;;;;;;;;;;;;;;;;;5070885;28;20425;-78
2021/10/31 00:19:36;;;;;;;;;;;;;;;;;;5055483;28;20425;-78
2021/10/31 00:22:01;;;;;;;;;;;;;;;;;;5052878;28;19927;-77
2021/10/31 00:24:27;;;;;;;;;;;;;;;;;;5058897;28;19916;-77
2021/10/31 00:26:52;;;;;;;;;;;;;;;;;;5053876;28;19928;-77
2021/10/31 00:29:17;;;;;;;;;;;;;;;;;;5053964;28;20356;-78
2021/10/31 00:31:42;;;;;;;;;;;;;;;;;;5087701;28;19932;-77
2021/10/31 00:34:08;;;;;;;;;;;;;;;;;;5055918;28;19920;-78
2021/10/31 00:36:33;;;;;;;;;;;;;;;;;;5070852;28;19913;-77
2021/10/31 00:38:58;;;;;;;;;;;;;;;;;;5069636;28;19920;-78
2021/10/31 00:41:24;;;;;;;;;;;;;;;;;;5070449;28;20007;-77
2021/10/31 00:43:49;;;;;;;;;;;;;;;;;;5070620;28;19939;-77
2021/10/31 00:46:14;;;;;;;;;;;;;;;;;;5049453;28;19959;-77
2021/10/31 00:48:40;;;;;;;;;;;;;;;;;;5090873;28;19912;-78
2021/10/31 00:51:05;;;;;;;;;;;;;;;;;;5074131;28;20057;-77
2021/10/31 00:53:31;;;;;;;;;;;;;;;;;;5090029;28;20247;-77
2021/10/31 00:55:57;;;;;;;;;;;;;;;;;;5055505;28;19924;-77
2021/10/31 00:58:23;;;;;;;;;;;;;;;;;;5060062;28;19916;-77
2021/10/31 01:00:48;;;;;;;;;;;;;;;;;;5069594;28;19916;-78
2021/10/31 01:03:14;;;;;;;;;;;;;;;;;;5037375;28;19917;-77
2021/10/31 01:05:41;;;;;;;;;;;;;;;;;;5054047;28;19920;-77
2021/10/31 01:08:15;;;;;;;;;;;;;;;;;;5039686;28;19916;-78
2021/10/31 01:10:59;;;;;;;;;;;;;;;;;;5082823;28;19927;-77
2021/10/31 01:13:37;;;;;;;;;;;;;;;;;;5074086;28;19963;-77
2021/10/31 01:16:03;;;;;;;;;;;;;;;;;;5060711;28;19993;-78
2021/10/31 01:18:37;;;;;;;;;;;;;;;;;;5095787;28;19924;-77
2021/10/31 01:21:05;;;;;;;;;;;;;;;;;;5082647;28;19928;-77
2021/10/31 01:23:48;;;;;;;;;;;;;;;;;;5077063;28;20297;-77
2021/10/31 01:26:29;;;;;;;;;;;;;;;;;;5056972;28;19917;-77
2021/10/31 01:29:04;;;;;;;;;;;;;;;;;;5075088;28;19917;-77
2021/10/31 01:31:33;;;;;;;;;;;;;;;;;;5089392;28;20014;-77
2021/10/31 01:34:10;;;;;;;;;;;;;;;;;;5093930;28;19923;-78
2021/10/31 01:36:38;;;;;;;;;;;;;;;;;;5072688;28;19916;-78
2021/10/31 01:39:39;;;;;;;;;;;;;;;;;;5073646;28;20413;-78
2021/10/31 01:42:07;;;;;;;;;;;;;;;;;;5012516;28;19922;-77
2021/10/31 01:44:41;;;;;;;;;;;;;;;;;;5057805;28;19912;-77
2021/10/31 01:47:28;;;;;;;;;;;;;;;;;;5075417;28;19946;-78
2021/10/31 01:49:59;;;;;;;;;;;;;;;;;;5070803;28;19999;-78
2021/10/31 01:52:25;;;;;;;;;;;;;;;;;;5060323;28;19917;-77
2021/10/31 01:54:58;;;;;;;;;;;;;;;;;;5058241;28;19916;-77
2021/10/31 01:57:23;;;;;;;;;;;;;;;;;;5074468;28;19924;-77
2021/10/31 01:59:55;;;;;;;;;;;;;;;;;;5059383;28;19916;-77
2021/10/31 02:02:21;;;;;;;;;;;;;;;;;;5059426;28;19981;-77
2021/10/31 02:04:46;;;;;;;;;;;;;;;;;;5093043;28;20319;-78
2021/10/31 02:07:11;;;;;;;;;;;;;;;;;;5076708;28;20392;-77
2021/10/31 02:09:37;;;;;;;;;;;;;;;;;;5075581;28;19941;-77
2021/10/31 02:12:02;;;;;;;;;;;;;;;;;;5075476;28;19924;-77
2021/10/31 02:14:28;;;;;;;;;;;;;;;;;;5092666;28;19920;-77
2021/10/31 02:16:56;;;;;;;;;;;;;;;;;;5078917;28;20293;-77
2021/10/31 02:19:22;;;;;;;;;;;;;;;;;;5058858;28;19912;-78
2021/10/31 02:21:50;;;;;;;;;;;;;;;;;;5075580;28;20015;-77
2021/10/31 02:24:15;;;;;;;;;;;;;;;;;;5092414;28;19923;-77
2021/10/31 02:26:40;;;;;;;;;;;;;;;;;;5074894;28;19912;-78
2021/10/31 02:29:08;;;;;;;;;;;;;;;;;;5076215;28;19999;-77
2021/10/31 02:31:33;;;;;;;;;;;;;;;;;;5060417;28;19916;-78
2021/10/31 02:33:59;;;;;;;;;;;;;;;;;;5072572;28;19916;-77
2021/10/31 02:36:24;;;;;;;;;;;;;;;;;;5086851;28;19913;-77
2021/10/31 02:38:49;;;;;;;;;;;;;;;;;;5092370;28;19926;-77
2021/10/31 02:41:15;;;;;;;;;;;;;;;;;;5055182;28;19928;-77
2021/10/31 02:43:40;;;;;;;;;;;;;;;;;;5072488;28;19920;-77
2021/10/31 02:46:05;;;;;;;;;;;;;;;;;;5047902;28;19916;-77
2021/10/31 02:48:31;;;;;;;;;;;;;;;;;;5039417;28;20390;-77
2021/10/31 02:50:57;;;;;;;;;;;;;;;;;;5072001;28;19920;-78
2021/10/31 02:53:28;;;;;;;;;;;;;;;;;;5072087;28;19912;-77
2021/10/31 02:55:53;;;;;;;;;;;;;;;;;;5062162;28;19927;-78
2021/10/31 02:58:21;;;;;;;;;;;;;;;;;;5077738;28;19920;-78
2021/10/31 03:00:47;;;;;;;;;;;;;;;;;;5063434;28;20069;-77
2021/10/31 03:03:12;;;;;;;;;;;;;;;;;;5071831;28;19912;-77
2021/10/31 03:05:38;;;;;;;;;;;;;;;;;;5067400;28;19931;-77
2021/10/31 03:08:03;;;;;;;;;;;;;;;;;;5072295;28;20358;-77
2021/10/31 03:10:28;;;;;;;;;;;;;;;;;;5074776;28;19921;-77
2021/10/31 03:12:55;;;;;;;;;;;;;;;;;;5072217;28;19963;-77
2021/10/31 03:15:20;;;;;;;;;;;;;;;;;;5071466;28;19970;-78
2021/10/31 03:17:46;;;;;;;;;;;;;;;;;;5054567;28;20386;-77
2021/10/31 03:20:11;;;;;;;;;;;;;;;;;;5054829;28;19923;-77
2021/10/31 03:22:36;;;;;;;;;;;;;;;;;;5071487;28;19912;-78
2021/10/31 03:25:02;;;;;;;;;;;;;;;;;;5072692;28;19934;-77
2021/10/31 03:27:27;;;;;;;;;;;;;;;;;;5071405;28;19967;-77
2021/10/31 03:29:52;;;;;;;;;;;;;;;;;;5071946;28;19952;-77
2021/10/31 03:32:18;;;;;;;;;;;;;;;;;;5071234;28;19955;-77
2021/10/31 03:34:43;;;;;;;;;;;;;;;;;;5055602;28;19970;-77
2021/10/31 03:37:09;;;;;;;;;;;;;;;;;;5071526;28;20011;-77
2021/10/31 03:39:34;;;;;;;;;;;;;;;;;;5070933;28;19916;-77
2021/10/31 03:41:59;;;;;;;;;;;;;;;;;;5089993;28;20382;-77
2021/10/31 03:44:25;;;;;;;;;;;;;;;;;;5074335;28;20021;-77
2021/10/31 03:46:50;;;;;;;;;;;;;;;;;;5079077;28;19965;-77
2021/10/31 03:49:15;;;;;;;;;;;;;;;;;;5089546;28;19916;-77
2021/10/31 03:51:41;;;;;;;;;;;;;;;;;;5062143;28;19916;-77
2021/10/31 03:54:06;;;;;;;;;;;;;;;;;;5070820;28;20320;-78
2021/10/31 03:56:31;;;;;;;;;;;;;;;;;;5054327;28;19917;-77
2021/10/31 03:58:57;;;;;;;;;;;;;;;;;;5086649;28;19916;-77
2021/10/31 04:01:22;;;;;;;;;;;;;;;;;;5070287;28;19924;-77
2021/10/31 04:03:47;;;;;;;;;;;;;;;;;;5054328;28;20003;-77
2021/10/31 04:06:13;;;;;;;;;;;;;;;;;;5074185;28;19916;-77
2021/10/31 04:08:42;;;;;;;;;;;;;;;;;;5074123;28;19923;-77
2021/10/31 04:11:08;;;;;;;;;;;;;;;;;;5054053;28;20439;-77
2021/10/31 04:13:33;;;;;;;;;;;;;;;;;;5067653;28;19920;-77
2021/10/31 04:15:58;;;;;;;;;;;;;;;;;;5070467;28;19924;-77
2021/10/31 04:18:24;;;;;;;;;;;;;;;;;;5065529;28;20331;-77
2021/10/31 04:20:49;;;;;;;;;;;;;;;;;;5054263;28;19916;-77
2021/10/31 04:23:15;;;;;;;;;;;;;;;;;;5061575;28;19916;-77
2021/10/31 04:25:40;;;;;;;;;;;;;;;;;;5054203;28;20369;-77
2021/10/31 04:28:06;;;;;;;;;;;;;;;;;;5070828;28;19939;-77
2021/10/31 04:30:31;;;;;;;;;;;;;;;;;;5069907;28;19924;-77
2021/10/31 04:32:56;;;;;;;;;;;;;;;;;;5053889;28;20015;-77
2021/10/31 04:35:22;;;;;;;;;;;;;;;;;;5067516;28;19922;-77
2021/10/31 04:37:47;;;;;;;;;;;;;;;;;;5056632;28;19916;-78
2021/10/31 04:40:15;;;;;;;;;;;;;;;;;;5088680;28;19928;-77
2021/10/31 04:42:40;;;;;;;;;;;;;;;;;;5054190;28;19928;-77
2021/10/31 04:45:06;;;;;;;;;;;;;;;;;;5059085;28;19912;-77
2021/10/31 04:47:32;;;;;;;;;;;;;;;;;;5058593;28;20273;-77
2021/10/31 04:49:58;;;;;;;;;;;;;;;;;;5058430;28;20285;-77
2021/10/31 04:52:23;;;;;;;;;;;;;;;;;;5077477;28;19920;-78
2021/10/31 04:54:49;;;;;;;;;;;;;;;;;;5077525;28;19916;-77
2021/10/31 04:57:14;;;;;;;;;;;;;;;;;;5084200;28;19917;-77
2021/10/31 04:59:39;;;;;;;;;;;;;;;;;;5079528;28;19928;-77
2021/10/31 05:02:04;;;;;;;;;;;;;;;;;;5057578;28;20354;-77
2021/10/31 05:04:30;;;;;;;;;;;;;;;;;;5074117;28;19960;-78
2021/10/31 05:06:55;;;;;;;;;;;;;;;;;;5073916;28;19912;-77
2021/10/31 05:09:20;;;;;;;;;;;;;;;;;;5093452;28;20378;-77
2021/10/31 05:11:46;;;;;;;;;;;;;;;;;;5094159;28;19924;-77
2021/10/31 05:14:11;;;;;;;;;;;;;;;;;;5093976;28;19923;-77
2021/10/31 05:16:37;;;;;;;;;;;;;;;;;;5056827;28;19916;-77
2021/10/31 05:19:03;;;;;;;;;;;;;;;;;;5041900;28;19921;-78
2021/10/31 05:21:28;;;;;;;;;;;;;;;;;;5060851;28;20370;-77
2021/10/31 05:23:53;;;;;;;;;;;;;;;;;;5077235;28;20282;-77
2021/10/31 05:26:19;;;;;;;;;;;;;;;;;;5077263;28;19919;-77
2021/10/31 05:28:44;;;;;;;;;;;;;;;;;;5062695;28;19920;-77
2021/10/31 05:31:10;;;;;;;;;;;;;;;;;;5073997;28;19963;-77
2021/10/31 05:33:35;;;;;;;;;;;;;;;;;;5069511;28;20014;-77
2021/10/31 05:36:00;;;;;;;;;;;;;;;;;;5073320;28;19975;-77
2021/10/31 05:38:26;;;;;;;;;;;;;;;;;;5057078;28;19963;-77
2021/10/31 05:40:51;;;;;;;;;;;;;;;;;;5072928;28;19991;-78
2021/10/31 05:43:16;;;;;;;;;;;;;;;;;;5084889;28;19920;-77
2021/10/31 05:45:42;;;;;;;;;;;;;;;;;;5086581;28;19919;-77
2021/10/31 05:48:07;;;;;;;;;;;;;;;;;;5063383;28;19966;-77
2021/10/31 05:50:32;;;;;;;;;;;;;;;;;;5059801;28;20294;-77
2021/10/31 05:52:58;;;;;;;;;;;;;;;;;;5049237;28;19926;-77
2021/10/31 05:55:23;;;;;;;;;;;;;;;;;;5074535;28;19931;-79
2021/10/31 05:57:49;;;;;;;;;;;;;;;;;;5055001;28;20003;-80
2021/10/31 06:00:15;;;;;;;;;;;;;;;;;;5074954;28;19924;-79
2021/10/31 06:02:41;;;;;;;;;;;;;;;;;;5086225;28;19912;-79
2021/10/31 06:05:06;;;;;;;;;;;;;;;;;;5073748;28;20440;-79
2021/10/31 06:07:32;;;;;;;;;;;;;;;;;;5055550;28;19912;-79
2021/10/31 06:09:57;;;;;;;;;;;;;;;;;;5038136;28;19923;-79
2021/10/31 06:12:22;;;;;;;;;;;;;;;;;;5037807;28;19920;-79
2021/10/31 06:14:48;;;;;;;;;;;;;;;;;;5071431;28;19995;-79
2021/10/31 06:17:13;;;;;;;;;;;;;;;;;;5071521;28;19916;-79
2021/10/31 06:19:39;;;;;;;;;;;;;;;;;;5054505;28;19916;-79
2021/10/31 06:22:05;;;;;;;;;;;;;;;;;;5052388;28;19913;-78
2021/10/31 06:24:30;;;;;;;;;;;;;;;;;;5069204;28;19920;-78
2021/10/31 06:26:56;;;;;;;;;;;;;;;;;;5091742;28;19973;-81
2021/10/31 06:29:21;;;;;;;;;;;;;;;;;;5075838;28;19912;-78
2021/10/31 06:31:46;;;;;;;;;;;;;;;;;;5076205;28;19912;-79
2021/10/31 06:34:12;;;;;;;;;;;;;;;;;;5059133;28;19919;-78
2021/10/31 06:36:37;;;;;;;;;;;;;;;;;;5075942;28;20441;-79
2021/10/31 06:39:02;;;;;;;;;;;;;;;;;;5075532;28;20843;-79
2021/10/31 06:41:28;;;;;;;;;;;;;;;;;;5075475;28;19989;-79
2021/10/31 06:43:53;;;;;;;;;;;;;;;;;;5071978;28;19920;-78
2021/10/31 06:46:18;;;;;;;;;;;;;;;;;;5040286;28;19921;-79
2021/10/31 06:48:44;;;;;;;;;;;;;;;;;;5055437;28;19962;-79
2021/10/31 06:51:09;;;;;;;;;;;;;;;;;;5056168;28;19974;-79
2021/10/31 06:53:34;;;;;;;;;;;;;;;;;;5076133;28;19916;-78
2021/10/31 06:56:00;;;;;;;;;;;;;;;;;;5075339;28;20340;-79
2021/10/31 06:58:26;;;;;;;;;;;;;;;;;;5090838;28;19912;-80
2021/10/31 07:00:51;;;;;;;;;;;;;;;;;;5075424;28;20378;-79
2021/10/31 07:03:16;;;;;;;;;;;;;;;;;;5088067;28;19913;-80
2021/10/31 07:05:42;;;;;;;;;;;;;;;;;;5054957;28;20336;-79
2021/10/31 07:08:07;;;;;;;;;;;;;;;;;;5072011;28;19919;-80
2021/10/31 07:10:32;;;;;;;;;;;;;;;;;;5071358;28;20442;-79
2021/10/31 07:12:58;;;;;;;;;;;;;;;;;;5055024;28;20459;-79
2021/10/31 07:15:23;;;;;;;;;;;;;;;;;;5071698;28;19916;-80
2021/10/31 07:17:49;;;;;;;;;;;;;;;;;;5054895;28;19917;-79
2021/10/31 07:20:14;;;;;;;;;;;;;;;;;;5067584;28;19970;-80
2021/10/31 07:22:42;;;;;;;;;;;;;;;;;;5071163;28;20293;-80
2021/10/31 07:25:08;;;;;;;;;;;;;;;;;;5053149;28;19919;-81
2021/10/31 07:27:35;;;;;;;;;;;;;;;;;;5052787;28;19927;-82
2021/10/31 07:30:00;;;;;;;;;;;;;;;;;;5047974;28;19916;-81
2021/10/31 07:32:26;;;;;;;;;;;;;;;;;;5054976;28;19962;-81
2021/10/31 07:34:51;;;;;;;;;;;;;;;;;;5048822;28;19984;-81
2021/10/31 07:37:16;;;;;;;;;;;;;;;;;;5058340;28;19912;-81
2021/10/31 07:39:43;;;;;;;;;;;;;;;;;;5057530;28;19916;-81
2021/10/31 07:42:08;;;;;;;;;;;;;;;;;;5091333;28;19946;-81
2021/10/31 07:44:33;;;;;;;;;;;;;;;;;;5076820;28;19920;-80
2021/10/31 07:47:01;;;;;;;;;;;;;;;;;;5067833;28;20456;-81
2021/10/31 07:49:26;;;;;;;;;;;;;;;;;;5074670;28;19919;-81
2021/10/31 07:51:52;;;;;;;;;;;;;;;;;;5054098;28;19917;-81
2021/10/31 07:54:22;;;;;;;;;;;;;;;;;;5064777;28;19919;-81
2021/10/31 07:56:49;;;;;;;;;;;;;;;;;;5074590;28;19912;-81
2021/10/31 07:59:15;;;;;;;;;;;;;;;;;;5074661;28;19912;-82
2021/10/31 08:01:40;;;;;;;;;;;;;;;;;;5074421;28;19922;-81
2021/10/31 08:04:05;;;;;;;;;;;;;;;;;;5057831;28;19919;-82
2021/10/31 08:06:30;;;;;;;;;;;;;;;;;;5071167;28;20007;-81
2021/10/31 08:08:56;;;;;;;;;;;;;;;;;;5073030;28;19920;-81
2021/10/31 08:11:21;;;;;;;;;;;;;;;;;;5065503;28;19921;-82
2021/10/31 08:13:47;;;;;;;;;;;;;;;;;;5054369;28;19920;-81
2021/10/31 08:16:12;;;;;;;;;;;;;;;;;;5066974;28;19923;-81
2021/10/31 08:18:37;;;;;;;;;;;;;;;;;;5036784;28;20730;-82
2021/10/31 08:21:03;;;;;;;;;;;;;;;;;;5037657;28;20274;-83
2021/10/31 08:23:29;;;;;;;;;;;;;;;;;;5063441;28;19920;-81
2021/10/31 08:25:55;;;;;;;;;;;;;;;;;;5062620;28;19921;-81
2021/10/31 08:28:21;;;;;;;;;;;;;;;;;;5072332;28;20385;-86
2021/10/31 08:31:00;;;;;;;;;;;;;;;;;;5053809;28;19947;-83
2021/10/31 08:33:30;;;;;;;;;;;;;;;;;;5087992;28;19923;-82
2021/10/31 08:35:55;;;;;;;;;;;;;;;;;;5071294;28;19920;-81
2021/10/31 08:38:22;;;;;;;;;;;;;;;;;;5054379;28;20289;-81
2021/10/31 08:40:48;;;;;;;;;;;;;;;;;;5050938;28;19916;-83
2021/10/31 08:43:13;;;;;;;;;;;;;;;;;;5053377;28;19924;-83
2021/10/31 08:45:39;;;;;;;;;;;;;;;;;;5058692;28;20011;-82
2021/10/31 08:48:05;;;;;;;;;;;;;;;;;;5053763;28;20318;-83
2021/10/31 08:50:30;;;;;;;;;;;;;;;;;;5062133;28;19916;-82
2021/10/31 08:52:55;;;;;;;;;;;;;;;;;;5061750;28;19923;-83
2021/10/31 08:55:21;;;;;;;;;;;;;;;;;;5052320;28;20353;-83
2021/10/31 08:57:46;;;;;;;;;;;;;;;;;;5037205;28;19918;-82
2021/10/31 09:00:12;;;;;;;;;;;;;;;;;;5037258;28;19938;-82
2021/10/31 09:02:37;;;;;;;;;;;;;;;;;;5037360;28;19999;-82
2021/10/31 09:05:06;;;;;;;;;;;;;;;;;;5037283;28;20439;-82
2021/10/31 09:07:32;;;;;;;;;;;;;;;;;;5053558;28;19912;-82
2021/10/31 09:09:58;;;;;;;;;;;;;;;;;;5065260;28;19916;-83
2021/10/31 09:12:23;;;;;;;;;;;;;;;;;;5073750;28;19924;-82
2021/10/31 09:14:49;;;;;;;;;;;;;;;;;;5056879;28;19912;-83
2021/10/31 09:17:14;;;;;;;;;;;;;;;;;;5074151;28;19965;-84
2021/10/31 09:19:40;;;;;;;;;;;;;;;;;;5073762;28;19916;-83
2021/10/31 09:22:05;;;;;;;;;;;;;;;;;;5056082;28;19966;-82
2021/10/31 09:24:30;;;;;;;;;;;;;;;;;;5055858;28;20339;-82
2021/10/31 09:26:56;;;;;;;;;;;;;;;;;;5073815;28;19916;-83
2021/10/31 09:29:21;;;;;;;;;;;;;;;;;;5057590;28;19916;-83
2021/10/31 09:31:46;;;;;;;;;;;;;;;;;;5060773;28;19938;-81
2021/10/31 09:34:12;;;;;;;;;;;;;;;;;;5077246;28;19912;-82
2021/10/31 09:36:37;;;;;;;;;;;;;;;;;;5060279;28;19912;-82
2021/10/31 09:39:06;;;;;;;;;;;;;;;;;;5056297;28;20370;-84
2021/10/31 09:41:32;;;;;;;;;;;;;;;;;;5073400;28;19927;-82
2021/10/31 09:44:21;;;;;;;;;;;;;;;;;;5055881;28;19920;-81
2021/10/31 09:46:46;;;;;;;;;;;;;;;;;;5043478;28;19959;-81
2021/10/31 09:49:12;;;;;;;;;;;;;;;;;;5083092;28;19958;-81
2021/10/31 09:51:38;;;;;;;;;;;;;;;;;;5057340;28;19913;-82
2021/10/31 09:54:04;;;;;;;;;;;;;;;;;;5075764;28;19916;-81
2021/10/31 09:56:30;;;;;;;;;;;;;;;;;;5072529;28;19912;-84
2021/10/31 09:58:59;;;;;;;;;;;;;;;;;;5074485;28;19927;-83
2021/10/31 10:04:22;;;;;;;;;;;;;;;;;;5094205;28;19965;-82
2021/10/31 10:06:50;;;;;;;;;;;;;;;;;;5050066;28;20368;-82
2021/10/31 10:09:16;;;;;;;;;;;;;;;;;;5057643;28;20339;-82
2021/10/31 10:11:41;;;;;;;;;;;;;;;;;;5072210;28;20011;-83
2021/10/31 10:14:13;;;;;;;;;;;;;;;;;;5061555;28;19995;-81
2021/10/31 10:16:39;;;;;;;;;;;;;;;;;;5068530;28;19916;-82
2021/10/31 10:19:14;;;;;;;;;;;;;;;;;;5073701;28;19943;-82
2021/10/31 10:21:39;;;;;;;;;;;;;;;;;;5058103;28;19921;-82
2021/10/31 10:24:09;;;;;;;;;;;;;;;;;;5074087;28;20352;-81
2021/10/31 10:26:36;;;;;;;;;;;;;;;;;;5072152;28;20011;-82
2021/10/31 10:29:17;;;;;;;;;;;;;;;;;;5056475;28;20397;-82
2021/10/31 10:31:43;;;;;;;;;;;;;;;;;;5085960;28;19989;-83
2021/10/31 10:34:09;;;;;;;;;;;;;;;;;;5056622;28;19920;-83
2021/10/31 10:36:38;;;;;;;;;;;;;;;;;;5057893;28;20278;-84
2021/10/31 10:39:06;;;;;;;;;;;;;;;;;;5076107;28;20282;-83
2021/10/31 10:41:40;;;;;;;;;;;;;;;;;;5092172;28;19928;-86
2021/10/31 10:44:25;;;;;;;;;;;;;;;;;;5073925;28;19912;-85
2021/10/31 10:46:55;;;;;;;;;;;;;;;;;;5043520;28;19916;-85
2021/10/31 10:49:20;;;;;;;;;;;;;;;;;;5072936;28;19916;-84
2021/10/31 10:51:46;;;;;;;;;;;;;;;;;;5056416;28;20438;-85
2021/10/31 10:54:12;;;;;;;;;;;;;;;;;;5073322;28;19954;-84
2021/10/31 10:56:41;;;;;;;;;;;;;;;;;;5061890;28;20290;-83
2021/10/31 10:59:06;;;;;;;;;;;;;;;;;;5092823;28;20401;-83
2021/10/31 11:01:31;;;;;;;;;;;;;;;;;;5075427;28;19912;-83
2021/10/31 11:03:57;;;;;;;;;;;;;;;;;;5070698;28;19961;-83
2021/10/31 11:06:26;;;;;;;;;;;;;;;;;;5056413;28;19916;-83
2021/10/31 11:08:53;;;;;;;;;;;;;;;;;;5086087;28;19916;-83
2021/10/31 11:11:18;;;;;;;;;;;;;;;;;;5073298;28;19921;-83
2021/10/31 11:13:49;;;;;;;;;;;;;;;;;;5039337;28;20358;-81
2021/10/31 11:16:15;;;;;;;;;;;;;;;;;;5039513;28;19916;-82
2021/10/31 11:18:41;;;;;;;;;;;;;;;;;;5042704;28;19924;-83
2021/10/31 11:21:07;;;;;;;;;;;;;;;;;;5088029;28;20018;-83
2021/10/31 11:23:32;;;;;;;;;;;;;;;;;;5067909;28;20000;-83
2021/10/31 11:25:59;;;;;;;;;;;;;;;;;;5055278;28;20361;-83
2021/10/31 11:28:24;;;;;;;;;;;;;;;;;;5064424;28;20440;-84
2021/10/31 11:30:50;;;;;;;;;;;;;;;;;;5079053;28;20010;-82
2021/10/31 11:33:16;;;;;;;;;;;;;;;;;;5095833;28;20334;-82
2021/10/31 11:35:41;;;;;;;;;;;;;;;;;;5095564;28;19949;-82
2021/10/31 11:38:07;;;;;;;;;;;;;;;;;;5070604;28;19969;-81
2021/10/31 11:40:33;;;;;;;;;;;;;;;;;;5074389;28;20024;-81
2021/10/31 11:42:59;;;;;;;;;;;;;;;;;;5044489;28;19924;-81
2021/10/31 11:45:26;;;;;;;;;;;;;;;;;;5069111;28;19923;-80
2021/10/31 11:48:08;;;;;;;;;;;;;;;;;;5051433;28;20289;-83
2021/10/31 11:50:34;;;;;;;;;;;;;;;;;;5071816;28;19912;-81
2021/10/31 11:53:00;;;;;;;;;;;;;;;;;;5047378;28;19921;-85
2021/10/31 11:55:27;;;;;;;;;;;;;;;;;;5074192;28;19920;-80
2021/10/31 11:58:03;;;;;;;;;;;;;;;;;;5093362;28;20434;-81
2021/10/31 12:00:29;;;;;;;;;;;;;;;;;;5072727;28;19946;-81
2021/10/31 12:02:56;;;;;;;;;;;;;;;;;;5055458;28;19928;-80
2021/10/31 12:05:36;;;;;;;;;;;;;;;;;;5072150;28;19913;-81
2021/10/31 12:08:02;;;;;;;;;;;;;;;;;;5056612;28;19978;-84
2021/10/31 12:10:30;;;;;;;;;;;;;;;;;;5054669;28;19916;-84
2021/10/31 12:13:15;;;;;;;;;;;;;;;;;;5055051;28;20081;-83
2021/10/31 12:15:56;;;;;;;;;;;;;;;;;;5054960;28;19925;-80
2021/10/31 12:18:33;;;;;;;;;;;;;;;;;;5069173;28;19916;-80
2021/10/31 12:20:58;;;;;;;;;;;;;;;;;;5084175;28;19920;-80
2021/10/31 12:23:24;;;;;;;;;;;;;;;;;;5059604;28;19920;-80
2021/10/31 12:25:49;;;;;;;;;;;;;;;;;;5074510;28;20711;-79
2021/10/31 12:28:34;;;;;;;;;;;;;;;;;;5073086;28;19912;-80
2021/10/31 12:31:19;;;;;;;;;;;;;;;;;;5070802;28;19951;-80
2021/10/31 12:34:03;;;;;;;;;;;;;;;;;;5053647;28;20426;-80
2021/10/31 12:36:29;;;;;;;;;;;;;;;;;;5063969;28;19946;-81
2021/10/31 12:38:54;;;;;;;;;;;;;;;;;;5038595;28;19921;-81
2021/10/31 12:41:21;;;;;;;;;;;;;;;;;;5070939;28;19956;-80
2021/10/31 12:43:49;;;;;;;;;;;;;;;;;;5053043;28;19964;-80
2021/10/31 12:46:16;;;;;;;;;;;;;;;;;;5049844;28;19927;-80
2021/10/31 12:48:41;;;;;;;;;;;;;;;;;;5057375;28;20007;-80
2021/10/31 12:51:11;;;;;;;;;;;;;;;;;;5071844;28;20006;-80
2021/10/31 12:53:38;;;;;;;;;;;;;;;;;;5085468;28;19912;-80
2021/10/31 12:56:03;;;;;;;;;;;;;;;;;;5065822;28;20029;-80
2021/10/31 12:58:29;;;;;;;;;;;;;;;;;;5058863;28;19917;-80
2021/10/31 13:00:54;;;;;;;;;;;;;;;;;;5057179;28;20259;-80
2021/10/31 13:03:20;;;;;;;;;;;;;;;;;;5073982;28;19916;-80
2021/10/31 13:05:45;;;;;;;;;;;;;;;;;;5077360;28;19987;-80
2021/10/31 13:08:11;;;;;;;;;;;;;;;;;;5058191;28;20336;-79
2021/10/31 13:10:42;;;;;;;;;;;;;;;;;;5069520;28;19916;-80
2021/10/31 13:13:17;;;;;;;;;;;;;;;;;;5057740;28;20371;-80
2021/10/31 13:15:47;;;;;;;;;;;;;;;;;;5075018;28;19912;-80
2021/10/31 13:18:19;;;;;;;;;;;;;;;;;;5057628;28;19991;-81
2021/10/31 13:20:48;;;;;;;;;;;;;;;;;;5064739;28;19920;-79
2021/10/31 13:23:24;;;;;;;;;;;;;;;;;;5050083;28;19921;-81
2021/10/31 13:25:55;;;;;;;;;;;;;;;;;;5074034;28;19955;-80
2021/10/31 13:28:22;;;;;;;;;;;;;;;;;;5040767;28;19927;-80
2021/10/31 13:30:56;;;;;;;;;;;;;;;;;;5088948;28;19917;-80
2021/10/31 13:33:27;;;;;;;;;;;;;;;;;;5073681;28;19916;-80
2021/10/31 13:35:53;;;;;;;;;;;;;;;;;;5082771;28;19917;-80
2021/10/31 13:38:18;;;;;;;;;;;;;;;;;;5057050;28;19923;-80
2021/10/31 13:40:43;;;;;;;;;;;;;;;;;;5066976;28;20436;-80
2021/10/31 13:43:09;;;;;;;;;;;;;;;;;;5053779;28;19928;-80
2021/10/31 13:45:34;;;;;;;;;;;;;;;;;;5063886;28;20010;-81
2021/10/31 13:48:02;;;;;;;;;;;;;;;;;;5055884;28;20007;-80
2021/10/31 13:50:30;;;;;;;;;;;;;;;;;;5063975;28;20006;-81
2021/10/31 13:52:56;;;;;;;;;;;;;;;;;;5064443;28;19912;-80
2021/10/31 13:55:22;;;;;;;;;;;;;;;;;;5066707;28;19916;-81
2021/10/31 13:57:48;;;;;;;;;;;;;;;;;;5057196;28;19912;-81
2021/10/31 14:00:16;;;;;;;;;;;;;;;;;;5076632;28;20807;-81
2021/10/31 14:02:41;;;;;;;;;;;;;;;;;;5093161;28;20377;-81
2021/10/31 14:05:07;;;;;;;;;;;;;;;;;;5055832;28;19919;-81
2021/10/31 14:07:36;;;;;;;;;;;;;;;;;;5062693;28;19923;-80
2021/10/31 14:10:01;;;;;;;;;;;;;;;;;;5073813;28;19927;-83
2021/10/31 14:12:28;;;;;;;;;;;;;;;;;;5055237;28;19931;-83
2021/10/31 14:15:19;;;;;;;;;;;;;;;;;;5056545;28;19916;-84
2021/10/31 14:17:57;;;;;;;;;;;;;;;;;;5087712;28;19998;-80
2021/10/31 14:20:22;;;;;;;;;;;;;;;;;;5080994;28;19916;-81
2021/10/31 14:22:49;;;;;;;;;;;;;;;;;;5072825;28;20333;-81
2021/10/31 14:25:17;;;;;;;;;;;;;;;;;;5069259;28;19944;-80
2021/10/31 14:27:44;;;;;;;;;;;;;;;;;;5055381;28;19912;-81
2021/10/31 14:30:13;;;;;;;;;;;;;;;;;;5047044;28;19920;-81
2021/10/31 14:32:56;;;;;;;;;;;;;;;;;;5050547;28;19927;-80
2021/10/31 14:35:22;;;;;;;;;;;;;;;;;;5039600;28;19920;-80
2021/10/31 14:38:02;;;;;;;;;;;;;;;;;;5072492;28;19920;-80
2021/10/31 14:40:28;;;;;;;;;;;;;;;;;;5071216;28;19956;-80
2021/10/31 14:43:12;;;;;;;;;;;;;;;;;;5054617;28;19956;-80
2021/10/31 14:45:37;;;;;;;;;;;;;;;;;;5082411;28;19966;-80
2021/10/31 14:48:22;;;;;;;;;;;;;;;;;;5055745;28;20351;-81
2021/10/31 14:50:47;;;;;;;;;;;;;;;;;;5055321;28;19966;-80
2021/10/31 14:53:14;;;;;;;;;;;;;;;;;;5054526;28;19916;-80
2021/10/31 14:55:40;;;;;;;;;;;;;;;;;;5054654;28;20392;-79
2021/10/31 14:58:05;;;;;;;;;;;;;;;;;;5063634;28;19923;-80
2021/10/31 15:00:31;;;;;;;;;;;;;;;;;;5056018;28;19913;-81
2021/10/31 15:02:56;;;;;;;;;;;;;;;;;;5066419;28;19959;-81
2021/10/31 15:05:21;;;;;;;;;;;;;;;;;;5055478;28;20170;-80
2021/10/31 15:07:46;;;;;;;;;;;;;;;;;;5041094;28;19912;-80
2021/10/31 15:10:14;;;;;;;;;;;;;;;;;;5071766;28;19965;-80
2021/10/31 15:12:39;;;;;;;;;;;;;;;;;;5069150;28;19932;-80
2021/10/31 15:15:05;;;;;;;;;;;;;;;;;;5060081;28;19913;-81
2021/10/31 15:17:32;;;;;;;;;;;;;;;;;;5074536;28;19917;-80
2021/10/31 15:19:57;;;;;;;;;;;;;;;;;;5064614;28;19970;-80
2021/10/31 15:22:23;;;;;;;;;;;;;;;;;;5047686;28;20062;-80
2021/10/31 15:24:48;;;;;;;;;;;;;;;;;;5056219;28;19923;-81
2021/10/31 15:27:14;;;;;;;;;;;;;;;;;;5077006;28;20011;-79
2021/10/31 15:29:40;;;;;;;;;;;;;;;;;;5042798;28;19931;-79
2021/10/31 15:32:05;;;;;;;;;;;;;;;;;;5073216;28;19912;-83
2021/10/31 15:34:31;;;;;;;;;;;;;;;;;;5051594;28;19913;-80
2021/10/31 15:36:56;;;;;;;;;;;;;;;;;;5055818;28;19932;-79
2021/10/31 15:39:22;;;;;;;;;;;;;;;;;;5056168;28;19935;-80
2021/10/31 15:41:47;;;;;;;;;;;;;;;;;;5072303;28;19920;-80
2021/10/31 15:44:14;;;;;;;;;;;;;;;;;;5056168;28;19978;-80
2021/10/31 15:46:40;;;;;;;;;;;;;;;;;;5069330;28;19916;-82
2021/10/31 15:49:07;;;;;;;;;;;;;;;;;;5040008;28;19916;-80
2021/10/31 15:51:33;;;;;;;;;;;;;;;;;;5051941;28;19912;-84
2021/10/31 15:53:58;;;;;;;;;;;;;;;;;;5060333;28;19920;-81
2021/10/31 15:56:24;;;;;;;;;;;;;;;;;;5053629;28;19920;-82
2021/10/31 15:58:49;;;;;;;;;;;;;;;;;;5071415;28;19957;-84
2021/10/31 16:01:16;;;;;;;;;;;;;;;;;;5071971;28;19919;-83
2021/10/31 16:03:42;;;;;;;;;;;;;;;;;;5054991;28;19973;-80
2021/10/31 16:06:07;;;;;;;;;;;;;;;;;;5071646;28;20370;-85
2021/10/31 16:08:32;;;;;;;;;;;;;;;;;;5071287;28;20027;-82
2021/10/31 16:10:58;;;;;;;;;;;;;;;;;;5048207;28;20378;-81
2021/10/31 16:13:24;;;;;;;;;;;;;;;;;;5054460;28;19927;-82
2021/10/31 16:15:52;;;;;;;;;;;;;;;;;;5064274;28;19965;-82
2021/10/31 16:18:17;;;;;;;;;;;;;;;;;;5048734;28;20346;-82
2021/10/31 16:20:44;;;;;;;;;;;;;;;;;;5070283;28;19999;-82
2021/10/31 16:23:10;;;;;;;;;;;;;;;;;;5054423;28;19942;-81
2021/10/31 16:25:36;;;;;;;;;;;;;;;;;;5061112;28;19916;-82
2021/10/31 16:28:01;;;;;;;;;;;;;;;;;;5037519;28;19912;-84
2021/10/31 16:30:27;;;;;;;;;;;;;;;;;;5052889;28;19920;-82
2021/10/31 16:32:55;;;;;;;;;;;;;;;;;;5052443;28;20413;-83
2021/10/31 16:35:23;;;;;;;;;;;;;;;;;;5069634;28;20344;-84
2021/10/31 16:37:49;;;;;;;;;;;;;;;;;;5071194;28;19920;-85
2021/10/31 16:40:15;;;;;;;;;;;;;;;;;;5055813;28;19989;-84
2021/10/31 16:42:48;;;;;;;;;;;;;;;;;;5057956;28;19917;-83
2021/10/31 16:45:14;;;;;;;;;;;;;;;;;;5074724;28;19919;-84
2021/10/31 16:47:39;;;;;;;;;;;;;;;;;;5041721;28;20011;-84